createdAt,value
2019-02-26T00:00:42.334Z,4.80
2019-02-26T00:03:11.803Z,4.90
2019-02-26T00:05:42.092Z,4.80
2019-02-26T00:08:14.580Z,4.80
2019-02-26T00:10:44.190Z,4.80
2019-02-26T00:13:15.125Z,4.70
2019-02-26T00:15:46.013Z,4.70
2019-02-26T00:18:18.947Z,4.80
2019-02-26T00:20:49.155Z,4.80
2019-02-26T00:23:21.614Z,4.90
2019-02-26T00:25:51.660Z,5.10
2019-02-26T00:28:22.077Z,5.30
2019-02-26T00:30:52.158Z,5.30
2019-02-26T00:33:24.661Z,5.30
2019-02-26T00:35:54.871Z,5.20
2019-02-26T00:38:24.879Z,5.30
2019-02-26T00:40:55.080Z,5.20
2019-02-26T00:43:27.907Z,5.10
2019-02-26T00:46:00.659Z,5.00
2019-02-26T00:48:31.950Z,5.00
2019-02-26T00:51:03.147Z,5.00
2019-02-26T00:53:33.203Z,4.90
2019-02-26T00:56:03.348Z,4.70
2019-02-26T00:58:38.960Z,4.60
2019-02-26T01:01:08.235Z,4.70
2019-02-26T01:03:40.132Z,4.60
2019-02-26T01:06:09.866Z,4.50
2019-02-26T01:08:42.521Z,4.50
2019-02-26T01:11:12.471Z,4.50
2019-02-26T01:13:43.007Z,4.40
2019-02-26T01:16:13.722Z,4.30
2019-02-26T01:18:44.374Z,4.30
2019-02-26T01:21:15.607Z,4.30
2019-02-26T01:23:46.047Z,4.30
2019-02-26T01:26:15.943Z,4.40
2019-02-26T01:28:48.310Z,4.60
2019-02-26T01:31:19.803Z,4.60
2019-02-26T01:33:50.904Z,4.60
2019-02-26T01:36:23.265Z,4.50
2019-02-26T01:38:53.189Z,4.50
2019-02-26T01:41:24.973Z,4.40
2019-02-26T01:43:54.685Z,4.30
2019-02-26T01:46:24.315Z,4.30
2019-02-26T01:48:55.208Z,4.30
2019-02-26T01:51:28.481Z,4.20
2019-02-26T01:53:57.835Z,4.00
2019-02-26T01:56:27.593Z,4.00
2019-02-26T01:59:02.066Z,3.90
2019-02-26T02:01:28.948Z,3.80
2019-02-26T02:03:59.240Z,3.60
2019-02-26T02:06:30.358Z,3.70
2019-02-26T02:09:01.297Z,3.80
2019-02-26T02:11:33.336Z,4.00
2019-02-26T02:14:05.762Z,4.20
2019-02-26T02:16:36.028Z,4.10
2019-02-26T02:19:06.159Z,4.00
2019-02-26T02:21:37.681Z,4.00
2019-02-26T02:24:10.703Z,3.90
2019-02-26T02:26:41.091Z,3.90
2019-02-26T02:29:12.766Z,3.80
2019-02-26T02:31:44.506Z,3.70
2019-02-26T02:34:14.938Z,3.70
2019-02-26T02:36:44.756Z,3.60
2019-02-26T02:39:15.663Z,3.50
2019-02-26T02:41:50.843Z,3.40
2019-02-26T02:44:20.364Z,3.40
2019-02-26T02:46:50.088Z,3.30
2019-02-26T02:49:20.059Z,3.30
2019-02-26T02:51:49.804Z,3.40
2019-02-26T02:54:20.969Z,3.40
2019-02-26T02:56:51.467Z,3.40
2019-02-26T02:59:22.108Z,3.40
2019-02-26T03:02:12.686Z,3.40
2019-02-26T03:04:42.289Z,3.30
2019-02-26T03:07:11.899Z,3.30
2019-02-26T03:09:43.218Z,3.40
2019-02-26T03:12:14.303Z,3.30
2019-02-26T03:14:45.248Z,3.20
2019-02-26T03:17:18.203Z,3.30
2019-02-26T03:19:46.582Z,3.40
2019-02-26T03:22:18.834Z,3.50
2019-02-26T03:24:51.361Z,3.60
2019-02-26T03:27:21.636Z,3.70
2019-02-26T03:29:52.691Z,3.80
2019-02-26T03:32:23.291Z,3.90
2019-02-26T03:34:53.969Z,3.80
2019-02-26T03:37:25.821Z,3.70
2019-02-26T03:39:57.400Z,3.60
2019-02-26T03:42:27.887Z,3.60
2019-02-26T03:44:59.658Z,3.50
2019-02-26T03:47:30.180Z,3.50
2019-02-26T03:50:00.666Z,3.40
2019-02-26T03:52:32.112Z,3.40
2019-02-26T03:55:03.550Z,3.30
2019-02-26T03:57:34.527Z,3.20
2019-02-26T04:00:06.515Z,3.10
2019-02-26T04:02:39.450Z,3.00
2019-02-26T04:05:10.099Z,2.80
2019-02-26T04:07:40.254Z,2.80
2019-02-26T04:10:10.246Z,2.80
2019-02-26T04:12:42.222Z,2.60
2019-02-26T04:15:14.829Z,2.60
2019-02-26T04:17:44.987Z,2.40
2019-02-26T04:20:16.554Z,2.50
2019-02-26T04:22:49.756Z,2.50
2019-02-26T04:25:27.827Z,2.70
2019-02-26T04:28:12.658Z,2.70
2019-02-26T04:31:18.473Z,2.70
2019-02-26T04:34:10.401Z,2.80
2019-02-26T04:37:27.386Z,2.80
2019-02-26T04:40:10.150Z,2.80
2019-02-26T04:43:10.450Z,2.90
2019-02-26T04:46:17.077Z,3.20
2019-02-26T04:48:47.612Z,3.40
2019-02-26T04:51:18.373Z,3.70
2019-02-26T04:53:51.169Z,3.70
2019-02-26T04:56:20.438Z,3.70
2019-02-26T04:58:50.832Z,3.60
2019-02-26T05:01:21.424Z,3.50
2019-02-26T05:03:51.932Z,3.20
2019-02-26T05:06:22.088Z,3.10
2019-02-26T05:08:52.371Z,3.00
2019-02-26T05:11:31.489Z,3.00
2019-02-26T05:13:53.967Z,2.90
2019-02-26T05:16:26.168Z,2.90
2019-02-26T05:18:58.386Z,2.90
2019-02-26T05:21:30.400Z,2.80
2019-02-26T05:24:00.253Z,2.70
2019-02-26T05:26:31.304Z,2.70
2019-02-26T05:29:01.219Z,2.80
2019-02-26T05:31:33.153Z,2.80
2019-02-26T05:34:03.703Z,2.70
2019-02-26T05:36:39.049Z,2.70
2019-02-26T05:39:08.384Z,2.60
2019-02-26T05:41:40.593Z,2.60
2019-02-26T05:44:10.911Z,2.60
2019-02-26T05:46:41.233Z,2.50
2019-02-26T05:49:14.104Z,2.60
2019-02-26T05:51:43.980Z,2.70
2019-02-26T05:54:17.725Z,2.70
2019-02-26T05:56:49.847Z,2.70
2019-02-26T05:59:21.489Z,2.70
2019-02-26T06:01:54.800Z,2.70
2019-02-26T06:04:22.678Z,2.60
2019-02-26T06:06:56.406Z,2.60
2019-02-26T06:09:26.140Z,2.50
2019-02-26T06:11:56.681Z,2.60
2019-02-26T06:14:27.559Z,2.60
2019-02-26T06:16:58.403Z,2.70
2019-02-26T06:19:45.884Z,2.70
2019-02-26T06:22:18.219Z,2.80
2019-02-26T06:24:48.166Z,2.80
2019-02-26T06:27:21.769Z,2.90
2019-02-26T06:29:52.838Z,3.00
2019-02-26T06:32:22.300Z,3.00
2019-02-26T06:34:52.288Z,3.10
2019-02-26T06:37:23.770Z,3.20
2019-02-26T06:39:55.673Z,3.30
2019-02-26T06:42:25.299Z,3.10
2019-02-26T06:44:55.594Z,3.10
2019-02-26T06:47:28.009Z,3.10
2019-02-26T06:49:58.085Z,3.10
2019-02-26T06:52:29.934Z,3.10
2019-02-26T06:55:02.972Z,3.20
2019-02-26T06:57:32.527Z,3.20
2019-02-26T07:00:04.254Z,3.30
2019-02-26T07:02:34.508Z,3.40
2019-02-26T07:05:04.625Z,3.50
2019-02-26T07:07:35.487Z,3.50
2019-02-26T07:10:06.575Z,3.70
2019-02-26T07:12:38.749Z,3.70
2019-02-26T07:15:14.055Z,3.80
2019-02-26T07:17:47.349Z,3.90
2019-02-26T07:20:17.118Z,4.00
2019-02-26T07:22:51.918Z,4.10
2019-02-26T07:25:23.476Z,4.10
2019-02-26T07:27:55.803Z,4.20
2019-02-26T07:30:26.387Z,4.20
2019-02-26T07:32:57.548Z,4.40
2019-02-26T07:35:39.615Z,4.40
2019-02-26T07:38:10.081Z,4.50
2019-02-26T07:40:40.549Z,4.60
2019-02-26T07:43:15.418Z,4.70
2019-02-26T07:45:45.627Z,4.70
2019-02-26T07:48:18.609Z,4.60
2019-02-26T07:50:50.823Z,4.70
2019-02-26T07:53:22.709Z,4.70
2019-02-26T07:55:56.844Z,4.70
2019-02-26T07:58:26.592Z,4.80
2019-02-26T08:00:59.613Z,5.00
2019-02-26T08:03:30.228Z,5.30
2019-02-26T08:06:06.678Z,5.50
2019-02-26T08:08:37.880Z,5.70
2019-02-26T08:11:09.876Z,5.70
2019-02-26T08:13:40.070Z,5.60
2019-02-26T08:16:11.114Z,5.60
2019-02-26T08:18:41.483Z,5.70
2019-02-26T08:21:12.104Z,5.70
2019-02-26T08:23:43.708Z,5.80
2019-02-26T08:26:15.515Z,5.80
2019-02-26T08:28:48.216Z,5.90
2019-02-26T08:31:20.526Z,6.00
2019-02-26T08:33:51.781Z,6.00
2019-02-26T08:36:23.053Z,6.10
2019-02-26T08:38:56.511Z,6.30
2019-02-26T08:41:26.167Z,6.40
2019-02-26T08:43:56.467Z,6.50
2019-02-26T08:46:27.100Z,6.60
2019-02-26T08:48:57.182Z,6.70
2019-02-26T08:51:27.632Z,6.80
2019-02-26T08:54:03.096Z,6.90
2019-02-26T08:56:34.266Z,7.00
2019-02-26T08:59:05.256Z,7.10
2019-02-26T09:01:35.684Z,7.20
2019-02-26T09:04:06.658Z,7.20
2019-02-26T09:06:37.537Z,7.30
2019-02-26T09:09:08.993Z,7.40
2019-02-26T09:11:40.086Z,7.50
2019-02-26T09:14:12.171Z,7.60
2019-02-26T09:16:47.703Z,7.60
2019-02-26T09:19:16.075Z,7.70
2019-02-26T09:21:47.805Z,7.80
2019-02-26T09:24:20.645Z,7.90
2019-02-26T09:26:52.094Z,8.00
2019-02-26T09:29:22.503Z,8.10
2019-02-26T09:31:52.596Z,8.20
2019-02-26T09:34:25.968Z,8.20
2019-02-26T09:36:58.115Z,8.30
2019-02-26T09:39:29.413Z,8.40
2019-02-26T09:42:04.066Z,8.50
2019-02-26T09:44:35.911Z,8.60
2019-02-26T09:47:07.561Z,8.70
2019-02-26T09:49:37.969Z,9.00
2019-02-26T09:52:08.261Z,9.10
2019-02-26T09:54:42.700Z,9.20
2019-02-26T09:57:15.509Z,9.30
2019-02-26T09:59:45.507Z,9.40
2019-02-26T10:02:17.368Z,9.40
2019-02-26T10:04:49.604Z,9.50
2019-02-26T10:07:19.747Z,9.60
2019-02-26T10:09:50.551Z,9.60
2019-02-26T10:12:20.814Z,9.70
2019-02-26T10:14:54.556Z,9.70
2019-02-26T10:17:26.555Z,9.80
2019-02-26T10:19:59.222Z,9.90
2019-02-26T10:22:33.295Z,9.80
2019-02-26T10:25:02.797Z,9.90
2019-02-26T10:28:03.030Z,10.00
2019-02-26T10:30:41.858Z,10.10
2019-02-26T10:33:22.883Z,10.20
2019-02-26T10:35:54.084Z,10.30
2019-02-26T10:38:28.875Z,10.30
2019-02-26T10:40:59.105Z,10.40
2019-02-26T10:43:28.737Z,10.50
2019-02-26T10:45:59.833Z,10.60
2019-02-26T10:48:30.649Z,10.70
2019-02-26T10:51:00.726Z,10.80
2019-02-26T10:53:33.608Z,10.90
2019-02-26T10:56:04.622Z,11.10
2019-02-26T10:58:37.592Z,11.30
2019-02-26T11:01:08.246Z,11.30
2019-02-26T11:03:41.660Z,11.40
2019-02-26T11:06:15.901Z,11.40
2019-02-26T11:08:44.771Z,11.60
2019-02-26T11:11:18.189Z,11.70
2019-02-26T11:13:51.193Z,11.80
2019-02-26T11:16:25.262Z,12.00
2019-02-26T11:18:51.990Z,12.10
2019-02-26T11:21:22.640Z,12.20
2019-02-26T11:23:53.459Z,12.10
2019-02-26T11:26:24.717Z,12.10
2019-02-26T11:28:54.950Z,12.20
2019-02-26T11:31:25.570Z,12.20
2019-02-26T11:34:00.236Z,12.30
2019-02-26T11:36:32.962Z,12.30
2019-02-26T11:39:02.237Z,12.50
2019-02-26T11:41:35.826Z,12.50
2019-02-26T11:44:09.854Z,12.60
2019-02-26T11:46:38.181Z,12.70
2019-02-26T11:49:11.961Z,12.80
2019-02-26T11:51:43.283Z,12.90
2019-02-26T11:54:15.096Z,13.00
2019-02-26T11:56:47.405Z,13.10
2019-02-26T11:59:19.459Z,13.10
2019-02-26T12:01:54.232Z,13.20
2019-02-26T12:04:25.093Z,13.20
2019-02-26T12:06:58.523Z,13.30
2019-02-26T12:09:30.017Z,13.40
2019-02-26T12:12:03.283Z,13.40
2019-02-26T12:14:34.744Z,13.50
2019-02-26T12:17:03.969Z,13.40
2019-02-26T12:19:37.163Z,13.40
2019-02-26T12:22:07.363Z,13.50
2019-02-26T12:24:38.088Z,13.60
2019-02-26T12:27:09.752Z,13.70
2019-02-26T12:29:42.671Z,13.70
2019-02-26T12:32:12.052Z,13.80
2019-02-26T12:34:44.601Z,13.80
2019-02-26T12:37:14.355Z,13.80
2019-02-26T12:39:47.374Z,13.90
2019-02-26T12:42:18.487Z,14.00
2019-02-26T12:44:49.357Z,14.10
2019-02-26T12:47:21.782Z,14.20
2019-02-26T12:49:52.412Z,14.30
2019-02-26T12:52:25.103Z,14.30
2019-02-26T12:54:55.513Z,14.40
2019-02-26T12:57:28.890Z,14.50
2019-02-26T12:59:58.768Z,14.40
2019-02-26T13:02:29.020Z,14.60
2019-02-26T13:04:59.360Z,14.60
2019-02-26T13:07:29.173Z,14.70
2019-02-26T13:10:03.509Z,14.70
2019-02-26T13:12:32.602Z,14.60
2019-02-26T13:15:05.760Z,14.60
2019-02-26T13:17:35.842Z,14.70
2019-02-26T13:20:11.076Z,14.80
2019-02-26T13:22:45.422Z,14.80
2019-02-26T13:25:17.873Z,14.70
2019-02-26T13:27:48.395Z,14.70
2019-02-26T13:30:21.463Z,14.80
2019-02-26T13:32:58.139Z,14.80
2019-02-26T13:35:23.324Z,14.80
2019-02-26T13:37:53.350Z,14.90
2019-02-26T13:40:25.295Z,15.00
2019-02-26T13:45:33.958Z,15.10
2019-02-26T13:48:04.272Z,15.20
2019-02-26T13:50:39.140Z,15.30
2019-02-26T13:53:10.008Z,15.30
2019-02-26T13:55:42.537Z,15.20
2019-02-26T13:58:14.012Z,15.20
2019-02-26T14:01:02.849Z,15.20
2019-02-26T14:03:33.118Z,15.30
2019-02-26T14:06:05.888Z,15.30
2019-02-26T14:08:39.660Z,15.30
2019-02-26T14:11:14.240Z,15.30
2019-02-26T14:13:45.188Z,15.40
2019-02-26T14:16:15.195Z,15.30
2019-02-26T14:18:45.485Z,15.40
2019-02-26T14:21:19.118Z,15.40
2019-02-26T14:24:01.513Z,15.40
2019-02-26T14:26:43.979Z,15.50
2019-02-26T14:29:42.183Z,15.50
2019-02-26T14:32:16.898Z,15.50
2019-02-26T14:34:53.107Z,15.60
2019-02-26T14:37:23.208Z,15.70
2019-02-26T14:39:55.379Z,15.60
2019-02-26T14:42:27.811Z,15.70
2019-02-26T14:44:59.060Z,15.70
2019-02-26T14:47:31.260Z,15.80
2019-02-26T14:50:02.614Z,15.70
2019-02-26T14:52:33.638Z,15.70
2019-02-26T14:55:04.292Z,15.70
2019-02-26T14:57:34.609Z,15.70
2019-02-26T15:00:04.978Z,15.70
2019-02-26T15:02:35.776Z,15.80
2019-02-26T15:05:10.425Z,15.70
2019-02-26T15:07:40.900Z,15.70
2019-02-26T15:10:12.406Z,15.60
2019-02-26T15:12:47.629Z,15.50
2019-02-26T15:15:23.771Z,15.50
2019-02-26T15:18:10.844Z,15.40
2019-02-26T15:20:42.596Z,15.40
2019-02-26T15:23:14.502Z,15.50
2019-02-26T15:25:50.549Z,15.50
2019-02-26T15:28:23.615Z,15.50
2019-02-26T15:31:12.722Z,15.50
2019-02-26T15:33:52.524Z,15.40
2019-02-26T15:36:32.230Z,15.30
2019-02-26T15:39:12.597Z,15.30
2019-02-26T15:41:45.730Z,15.30
2019-02-26T15:44:16.954Z,15.30
2019-02-26T15:46:49.841Z,15.30
2019-02-26T15:49:20.186Z,15.40
2019-02-26T15:51:58.727Z,15.30
2019-02-26T15:54:29.099Z,15.20
2019-02-26T15:58:03.387Z,14.90
2019-02-26T16:00:45.873Z,14.70
2019-02-26T16:03:21.346Z,14.40
2019-02-26T16:06:05.606Z,14.20
2019-02-26T16:08:52.573Z,14.00
2019-02-26T16:11:41.751Z,13.80
2019-02-26T16:18:14.654Z,13.20
2019-02-26T16:21:05.789Z,12.80
2019-02-26T16:23:46.551Z,12.60
2019-02-26T16:26:18.187Z,12.30
2019-02-26T16:29:23.054Z,12.10
2019-02-26T16:32:02.700Z,11.80
2019-02-26T16:34:39.398Z,11.60
2019-02-26T16:37:12.177Z,11.30
2019-02-26T16:39:44.536Z,11.30
2019-02-26T16:42:14.765Z,11.10
2019-02-26T16:44:45.158Z,11.20
2019-02-26T16:47:15.367Z,11.10
2019-02-26T16:49:52.696Z,11.20
2019-02-26T16:52:22.186Z,11.10
2019-02-26T16:54:52.752Z,11.10
2019-02-26T16:57:30.209Z,11.00
2019-02-26T17:00:15.712Z,10.90
2019-02-26T17:02:47.214Z,10.70
2019-02-26T17:05:28.535Z,10.60
2019-02-26T17:07:55.561Z,10.40
2019-02-26T17:10:29.072Z,10.30
2019-02-26T17:13:01.723Z,10.20
2019-02-26T17:15:29.229Z,10.20
2019-02-26T17:17:59.306Z,10.30
2019-02-26T17:20:29.595Z,10.30
2019-02-26T17:23:14.550Z,10.30
2019-02-26T17:25:46.820Z,10.40
2019-02-26T17:28:22.603Z,10.30
2019-02-26T17:30:57.757Z,10.20
2019-02-26T17:33:36.950Z,10.00
2019-02-26T17:36:09.900Z,10.00
2019-02-26T17:38:45.350Z,10.00
2019-02-26T17:41:23.057Z,10.00
2019-02-26T17:43:56.813Z,10.00
2019-02-26T17:46:34.287Z,9.90
2019-02-26T17:49:05.549Z,9.80
2019-02-26T17:51:54.059Z,9.60
2019-02-26T17:54:34.732Z,9.50
2019-02-26T17:57:05.546Z,9.40
2019-02-26T17:59:38.245Z,9.40
2019-02-26T18:02:18.276Z,9.40
2019-02-26T18:04:48.966Z,9.40
2019-02-26T18:07:19.644Z,9.50
2019-02-26T18:09:53.144Z,9.50
2019-02-26T18:12:23.391Z,9.50
2019-02-26T18:14:58.273Z,9.50
2019-02-26T18:17:26.456Z,9.60
2019-02-26T18:20:00.125Z,9.50
2019-02-26T18:22:36.672Z,9.30
2019-02-26T18:25:08.492Z,9.10
2019-02-26T18:27:52.039Z,9.00
2019-02-26T18:30:24.556Z,8.90
2019-02-26T18:33:47.528Z,9.00
2019-02-26T18:36:59.461Z,8.90
2019-02-26T18:39:32.437Z,8.70
2019-02-26T18:42:08.285Z,8.50
2019-02-26T18:44:48.017Z,8.40
2019-02-26T18:47:20.635Z,8.30
2019-02-26T18:49:55.530Z,8.30
2019-02-26T18:52:29.739Z,8.20
2019-02-26T18:55:00.092Z,8.20
2019-02-26T18:57:30.844Z,8.30
2019-02-26T19:00:16.522Z,8.30
2019-02-26T19:02:48.404Z,8.30
2019-02-26T19:05:27.571Z,8.40
2019-02-26T19:08:05.579Z,8.40
2019-02-26T19:10:53.342Z,8.40
2019-02-26T19:13:24.082Z,8.30
2019-02-26T19:15:53.696Z,8.30
2019-02-26T19:18:24.415Z,8.30
2019-02-26T19:20:58.517Z,8.30
2019-02-26T19:23:31.419Z,8.10
2019-02-26T19:26:00.840Z,8.00
2019-02-26T19:28:31.618Z,8.00
2019-02-26T19:31:02.213Z,8.10
2019-02-26T19:33:32.727Z,8.00
2019-02-26T19:36:13.609Z,8.00
2019-02-26T19:38:43.775Z,7.90
2019-02-26T19:41:15.730Z,7.80
2019-02-26T19:43:46.740Z,7.70
2019-02-26T19:46:17.885Z,7.60
2019-02-26T19:48:48.099Z,7.70
2019-02-26T19:51:21.858Z,7.60
2019-02-26T19:53:50.193Z,7.60
2019-02-26T19:56:23.179Z,7.50
2019-02-26T19:59:03.780Z,7.30
2019-02-26T20:01:34.712Z,7.30
2019-02-26T20:04:38.165Z,7.40
2019-02-26T20:07:06.134Z,7.50
2019-02-26T20:09:38.414Z,7.40
2019-02-26T20:12:10.032Z,7.40
2019-02-26T20:14:43.006Z,7.40
2019-02-26T20:17:14.900Z,7.40
2019-02-26T20:19:52.654Z,7.40
2019-02-26T20:22:33.460Z,7.30
2019-02-26T20:25:46.841Z,7.30
2019-02-26T20:28:35.439Z,7.40
2019-02-26T20:31:10.829Z,7.50
2019-02-26T20:33:43.931Z,7.60
2019-02-26T20:36:17.851Z,7.60
2019-02-26T20:38:53.315Z,7.50
2019-02-26T20:41:46.419Z,7.40
2019-02-26T20:44:24.635Z,7.30
2019-02-26T20:47:39.895Z,7.10
2019-02-26T20:50:01.431Z,7.00
2019-02-26T20:52:33.380Z,6.90
2019-02-26T20:55:08.790Z,6.80
2019-02-26T20:57:39.795Z,6.70
2019-02-26T21:00:12.932Z,6.50
2019-02-26T21:02:43.232Z,6.40
2019-02-26T21:05:12.872Z,6.30
2019-02-26T21:07:43.800Z,6.20
2019-02-26T21:10:15.910Z,6.20
2019-02-26T21:12:47.009Z,6.20
2019-02-26T21:15:18.464Z,6.30
2019-02-26T21:17:48.759Z,6.30
2019-02-26T21:20:18.917Z,6.20
2019-02-26T21:22:49.443Z,6.20
2019-02-26T21:25:19.906Z,6.20
2019-02-26T21:27:50.892Z,6.20
2019-02-26T21:30:20.968Z,6.20
2019-02-26T21:32:52.111Z,6.20
2019-02-26T21:35:22.362Z,6.20
2019-02-26T21:37:53.259Z,6.20
2019-02-26T21:40:26.173Z,6.20
2019-02-26T21:42:56.415Z,6.20
2019-02-26T21:45:26.645Z,6.30
2019-02-26T21:47:57.382Z,6.20
2019-02-26T21:50:27.879Z,6.10
2019-02-26T21:52:59.363Z,6.00
2019-02-26T21:55:32.659Z,5.90
2019-02-26T21:58:02.686Z,6.00
2019-02-26T22:00:32.838Z,6.10
2019-02-26T22:03:03.403Z,6.10
2019-02-26T22:05:37.404Z,6.20
2019-02-26T22:08:05.687Z,6.10
2019-02-26T22:10:36.850Z,6.10
2019-02-26T22:13:06.984Z,6.10
2019-02-26T22:15:37.104Z,6.00
2019-02-26T22:18:06.886Z,6.00
2019-02-26T22:20:37.348Z,5.80
2019-02-26T22:23:07.124Z,5.90
2019-02-26T22:25:37.752Z,5.90
2019-02-26T22:28:09.214Z,5.80
2019-02-26T22:30:39.566Z,5.60
2019-02-26T22:33:09.903Z,5.60
2019-02-26T22:35:40.474Z,5.60
2019-02-26T22:38:12.669Z,5.70
2019-02-26T22:40:43.091Z,5.70
2019-02-26T22:43:13.774Z,5.70
2019-02-26T22:45:44.080Z,5.70
2019-02-26T22:48:14.241Z,5.60
2019-02-26T22:50:43.977Z,5.70
2019-02-26T22:53:14.513Z,5.70
2019-02-26T22:55:44.177Z,5.70
2019-02-26T22:58:14.152Z,5.70
2019-02-26T23:01:39.005Z,5.60
2019-02-26T23:04:08.789Z,5.50
2019-02-26T23:06:38.667Z,5.50
2019-02-26T23:09:17.895Z,5.60
2019-02-26T23:11:48.326Z,5.50
2019-02-26T23:14:19.068Z,5.70
2019-02-26T23:16:51.657Z,5.60
2019-02-26T23:19:21.915Z,5.70
2019-02-26T23:21:52.330Z,5.60
2019-02-26T23:24:22.382Z,5.60
2019-02-26T23:26:52.633Z,5.60
2019-02-26T23:29:22.375Z,5.50
2019-02-26T23:31:52.535Z,5.40
2019-02-26T23:34:23.101Z,5.30
2019-02-26T23:36:53.925Z,5.30
2019-02-26T23:39:24.864Z,5.20
2019-02-26T23:41:56.466Z,5.10
2019-02-26T23:44:26.445Z,5.00
2019-02-26T23:46:57.181Z,5.00
2019-02-26T23:49:27.062Z,5.00
2019-02-26T23:51:58.041Z,4.80
2019-02-26T23:54:28.613Z,4.80
2019-02-26T23:56:59.552Z,4.70
2019-02-26T23:59:29.330Z,4.70
